Time;durP1;ratioP1;P1;durP2;ratioP2;P2;SDS_P1;SDS_P2;PMS_P1;PMS_P2;Temp;Humidity;BMP_temperature;BMP_pressure;BME280_temperature;BME280_humidity;BME280_pressure;Samples;Min_cycle;Max_cycle;Signal;HPM_P1;HPM_P2
2022/08/18 00:00:23;;;;;;;4.00;3.52;;;;;;;27.69;46.95;100221.00;1797625;78;21109;-80
2022/08/18 00:02:50;;;;;;;4.40;3.77;;;;;;;27.69;46.94;100227.17;1801335;78;21103;-79
2022/08/18 00:05:16;;;;;;;4.53;3.67;;;;;;;27.69;46.94;100222.39;1803216;78;21268;-80
2022/08/18 00:07:43;;;;;;;3.83;3.42;;;;;;;27.69;46.92;100225.78;1796714;79;21083;-80
2022/08/18 00:10:09;;;;;;;4.00;3.52;;;;;;;27.68;46.94;100230.56;1801705;79;21017;-80
2022/08/18 00:12:39;;;;;;;4.05;3.50;;;;;;;27.70;46.96;100221.80;1801942;79;21028;-80
2022/08/18 00:15:13;;;;;;;4.37;3.47;;;;;;;27.70;46.96;100226.80;1770930;79;21180;-79
2022/08/18 00:17:39;;;;;;;3.92;3.52;;;;;;;27.69;47.00;100221.59;1801636;79;21115;-79
2022/08/18 00:20:11;;;;;;;4.78;3.83;;;;;;;27.69;46.98;100226.59;1801692;79;20977;-79
2022/08/18 00:22:38;;;;;;;3.85;3.45;;;;;;;27.70;47.00;100221.80;1801632;79;20978;-79
2022/08/18 00:25:05;;;;;;;3.83;3.37;;;;;;;27.68;46.98;100222.17;1801857;79;21049;-80
2022/08/18 00:27:32;;;;;;;4.22;3.83;;;;;;;27.69;46.97;100222.98;1801719;79;21756;-80
2022/08/18 00:30:01;;;;;;;4.55;3.77;;;;;;;27.69;46.97;100222.98;1801283;79;20982;-79
2022/08/18 00:32:32;;;;;;;3.90;3.40;;;;;;;27.69;47.00;100218.80;1801736;79;21049;-79
2022/08/18 00:35:25;;;;;;;4.25;3.85;;;;;;;27.69;46.98;100211.80;1801569;79;21053;-79
2022/08/18 00:37:50;;;;;;;4.30;3.47;;;;;;;27.69;47.00;100215.41;1800405;79;21036;-79
2022/08/18 00:40:21;;;;;;;4.10;3.70;;;;;;;27.68;47.02;100211.00;1801362;79;21251;-79
2022/08/18 00:42:54;;;;;;;3.67;3.35;;;;;;;27.67;47.01;100213.57;1792144;79;21139;-81
2022/08/18 00:45:24;;;;;;;4.80;3.55;;;;;;;27.68;47.02;100212.39;1781233;80;20998;-79
2022/08/18 00:47:51;;;;;;;5.15;3.70;;;;;;;27.68;47.05;100201.22;1776630;79;21100;-80
2022/08/18 00:50:36;;;;;;;4.00;3.60;;;;;;;27.67;47.06;100202.98;1776296;80;21065;-80
2022/08/18 00:53:30;;;;;;;4.12;3.70;;;;;;;27.68;47.07;100211.00;1776159;80;21456;-79
2022/08/18 00:56:12;;;;;;;3.80;3.40;;;;;;;27.68;47.08;100212.98;1776105;79;21115;-79
2022/08/18 00:58:50;;;;;;;4.03;3.42;;;;;;;27.67;47.11;100223.94;1776099;80;21452;-80
2022/08/18 01:01:18;;;;;;;3.45;3.15;;;;;;;27.66;47.08;100228.75;1776132;79;21123;-79
2022/08/18 01:03:51;;;;;;;5.17;3.75;;;;;;;27.66;47.11;100217.58;1796886;79;21125;-79
2022/08/18 01:06:33;;;;;;;3.80;3.35;;;;;;;27.66;47.10;100214.78;1800057;79;21089;-79
2022/08/18 01:09:00;;;;;;;4.62;3.67;;;;;;;27.68;47.13;100225.55;1800519;79;20978;-79
2022/08/18 01:11:27;;;;;;;4.15;3.45;;;;;;;27.66;47.14;100218.97;1800878;79;21082;-79
2022/08/18 01:13:53;;;;;;;3.70;3.40;;;;;;;27.67;47.18;100221.14;1800901;79;20959;-79
2022/08/18 01:21:52;;;;;;;3.90;3.47;;;;;;;27.67;47.15;100233.72;1801549;79;21039;-80
2022/08/18 01:24:21;;;;;;;;;;;;;;;27.66;47.18;100235.73;1803495;79;21070;-79
2022/08/18 01:26:50;;;;;;;4.85;3.77;;;;;;;27.66;47.17;100239.12;1806354;78;20649;-80
2022/08/18 01:29:18;;;;;;;4.70;4.05;;;;;;;27.64;47.17;100240.89;1813944;78;21000;-80
2022/08/18 01:31:54;;;;;;;3.83;3.45;;;;;;;27.65;47.19;100241.70;1813868;78;21196;-80
2022/08/18 01:34:20;;;;;;;4.20;3.50;;;;;;;27.66;47.21;100240.52;1813049;78;21040;-79
2022/08/18 01:36:46;;;;;;;4.17;3.55;;;;;;;27.65;47.18;100240.30;1813916;78;21059;-79
2022/08/18 01:39:13;;;;;;;4.50;3.80;;;;;;;27.66;47.23;100234.93;1765871;78;20980;-79
2022/08/18 01:41:39;;;;;;;3.85;3.25;;;;;;;27.65;47.28;100234.13;1813645;79;21436;-79
2022/08/18 01:44:12;;;;;;;4.35;3.45;;;;;;;27.65;47.29;100238.31;1813519;79;21183;-79
2022/08/18 01:46:40;;;;;;;3.42;3.12;;;;;;;27.65;47.32;100234.70;1813901;79;21486;-80
2022/08/18 01:49:07;;;;;;;3.50;3.20;;;;;;;27.66;47.35;100236.33;1813685;79;21067;-79
2022/08/18 01:51:33;;;;;;;4.03;3.60;;;;;;;27.66;47.36;100237.72;1813683;79;21023;-79
2022/08/18 01:54:00;;;;;;;3.85;3.45;;;;;;;27.67;47.33;100243.50;1813955;78;21019;-79
2022/08/18 01:56:26;;;;;;;3.60;3.30;;;;;;;27.66;47.29;100246.92;1813633;79;21510;-79
2022/08/18 01:58:53;;;;;;;4.28;3.33;;;;;;;27.66;47.29;100252.51;1813825;79;20960;-79
2022/08/18 02:01:22;;;;;;;3.90;3.50;;;;;;;27.66;47.31;100252.51;1813912;79;21063;-79
2022/08/18 02:03:53;;;;;;;3.50;3.20;;;;;;;27.67;47.34;100247.70;1809793;78;21016;-80
2022/08/18 02:06:19;;;;;;;4.20;3.33;;;;;;;27.67;47.35;100247.11;1809002;78;20973;-79
2022/08/18 02:08:46;;;;;;;4.00;3.60;;;;;;;27.66;47.35;100244.13;1808806;78;21191;-80
2022/08/18 02:11:13;;;;;;;4.17;3.35;;;;;;;27.65;47.36;100243.91;1802704;79;21056;-80
2022/08/18 02:13:39;;;;;;;3.45;3.00;;;;;;;27.67;47.36;100251.89;1797812;79;22018;-79
2022/08/18 02:16:06;;;;;;;3.83;3.42;;;;;;;27.67;47.35;100247.70;1797777;79;21003;-79
2022/08/18 02:18:35;;;;;;;3.90;3.50;;;;;;;27.67;47.36;100247.70;1797465;78;20997;-80
2022/08/18 02:21:12;;;;;;;3.80;3.40;;;;;;;27.67;47.37;100252.70;1797874;78;21118;-80
2022/08/18 02:23:40;;;;;;;4.05;3.65;;;;;;;27.67;47.34;100258.88;1797395;79;21004;-80
2022/08/18 02:26:08;;;;;;;4.15;3.70;;;;;;;27.67;47.35;100258.88;1797947;79;21061;-79
2022/08/18 02:28:34;;;;;;;3.95;3.55;;;;;;;27.67;47.37;100258.29;1797610;78;21020;-79
2022/08/18 02:31:10;;;;;;;3.83;3.40;;;;;;;27.67;47.37;100257.48;1797620;79;20971;-80
2022/08/18 02:33:36;;;;;;;4.90;3.72;;;;;;;27.67;47.39;100259.69;1796671;79;21165;-79
2022/08/18 02:36:03;;;;;;;4.12;3.60;;;;;;;27.66;47.36;100255.89;1795169;79;21495;-80
2022/08/18 02:38:30;;;;;;;4.60;3.72;;;;;;;27.66;47.36;100257.29;1795610;78;21478;-80
2022/08/18 02:40:57;;;;;;;4.80;3.27;;;;;;;27.66;47.40;100255.89;1795436;79;21007;-80
2022/08/18 02:43:23;;;;;;;4.17;3.77;;;;;;;27.65;47.42;100250.08;1795280;79;21304;-79
2022/08/18 02:45:50;;;;;;;4.12;3.60;;;;;;;27.66;47.46;100262.88;1795642;78;21486;-79
2022/08/18 02:48:20;;;;;;;3.98;3.58;;;;;;;27.66;47.47;100260.08;1795549;78;21113;-79
2022/08/18 02:50:47;;;;;;;3.98;3.27;;;;;;;27.66;47.46;100265.09;1795344;78;21454;-79
2022/08/18 02:53:20;;;;;;;3.92;3.52;;;;;;;27.66;47.46;100260.89;1795580;78;21086;-80
2022/08/18 02:55:42;;;;;;;3.85;3.45;;;;;;;27.65;47.44;100270.45;1795526;78;21027;-79
2022/08/18 02:58:09;;;;;;;3.90;3.50;;;;;;;27.66;47.44;100269.86;1795306;79;21842;-79
2022/08/18 03:00:41;;;;;;;5.15;3.80;;;;;;;27.65;47.43;100271.04;1795270;79;21031;-79
2022/08/18 03:03:08;;;;;;;4.03;3.62;;;;;;;27.66;47.44;100274.87;1795396;78;21006;-79
2022/08/18 03:05:34;;;;;;;5.28;3.70;;;;;;;27.66;47.48;100270.67;1795188;79;21321;-79
2022/08/18 03:08:01;;;;;;;4.95;3.65;;;;;;;27.66;47.47;100275.45;1795491;78;21046;-79
2022/08/18 03:10:27;;;;;;;4.25;3.80;;;;;;;27.65;47.48;100276.63;1795698;78;21458;-79
2022/08/18 03:12:54;;;;;;;3.60;3.30;;;;;;;27.66;47.50;100278.25;1795218;78;21481;-79
2022/08/18 03:15:20;;;;;;;3.62;3.25;;;;;;;27.65;47.53;100273.84;1795518;78;21455;-79
2022/08/18 03:17:46;;;;;;;4.45;3.67;;;;;;;27.66;47.51;100274.05;1795637;78;21090;-79
2022/08/18 03:20:13;;;;;;;3.85;3.47;;;;;;;27.66;47.49;100275.45;1795525;79;21034;-79
2022/08/18 03:22:39;;;;;;;4.30;3.58;;;;;;;27.65;47.48;100285.02;1795499;78;21093;-79
2022/08/18 03:25:06;;;;;;;3.62;3.22;;;;;;;27.65;47.50;100294.80;1795562;78;21051;-79
2022/08/18 03:27:33;;;;;;;4.00;3.60;;;;;;;27.65;47.53;100287.81;1795248;78;21082;-79
2022/08/18 03:30:01;;;;;;;4.70;3.35;;;;;;;27.65;47.54;100286.41;1795491;79;21023;-80
2022/08/18 03:32:28;;;;;;;4.05;3.65;;;;;;;27.65;47.51;100292.00;1795517;79;22071;-80
2022/08/18 03:34:54;;;;;;;4.92;3.47;;;;;;;27.65;47.53;100299.80;1795274;79;21514;-79
2022/08/18 03:37:20;;;;;;;4.15;3.33;;;;;;;27.65;47.57;100294.21;1795418;78;20963;-79
2022/08/18 03:39:50;;;;;;;3.80;3.50;;;;;;;27.64;47.56;100299.58;1795361;78;21173;-79
2022/08/18 03:42:15;;;;;;;3.87;3.52;;;;;;;27.65;47.58;100307.38;1794882;78;21526;-79
2022/08/18 03:44:42;;;;;;;4.92;3.40;;;;;;;27.65;47.61;100310.17;1796379;79;20961;-79
2022/08/18 03:47:09;;;;;;;4.17;3.62;;;;;;;27.65;47.62;100305.98;1797812;79;21968;-80
2022/08/18 03:49:36;;;;;;;3.98;3.58;;;;;;;27.63;47.66;100313.33;1797363;78;21041;-79
2022/08/18 03:52:04;;;;;;;4.20;3.80;;;;;;;27.64;47.64;100309.95;1797974;79;21428;-79
2022/08/18 03:54:30;;;;;;;3.95;3.52;;;;;;;27.65;47.67;100309.58;1797816;79;20982;-79
2022/08/18 03:56:59;;;;;;;3.90;3.52;;;;;;;27.64;47.67;100307.96;1797574;79;21040;-79
2022/08/18 03:59:25;;;;;;;3.60;3.25;;;;;;;27.65;47.69;100301.78;1797736;79;21122;-79
2022/08/18 04:01:53;;;;;;;5.53;3.95;;;;;;;27.64;47.70;100305.17;1797674;79;21060;-80
2022/08/18 04:04:25;;;;;;;3.90;3.20;;;;;;;27.65;47.72;100301.20;1806311;78;21020;-79
2022/08/18 04:06:57;;;;;;;5.80;3.90;;;;;;;27.64;47.70;100300.16;1816823;78;20993;-80
2022/08/18 04:09:24;;;;;;;3.15;2.85;;;;;;;27.64;47.69;100307.96;1816795;78;21025;-79
2022/08/18 04:11:51;;;;;;;3.90;3.50;;;;;;;27.64;47.67;100305.75;1815631;78;21132;-79
2022/08/18 04:14:19;;;;;;;4.72;3.40;;;;;;;27.64;47.67;100314.14;1813793;78;21004;-79
2022/08/18 04:16:46;;;;;;;3.42;3.12;;;;;;;27.63;47.70;100316.13;1813595;78;20981;-79
2022/08/18 04:19:15;;;;;;;4.42;3.50;;;;;;;27.65;47.72;100322.75;1813945;78;21051;-79
2022/08/18 04:21:42;;;;;;;4.40;3.65;;;;;;;27.63;47.74;100321.71;1814126;78;21064;-79
2022/08/18 04:24:10;;;;;;;4.95;3.90;;;;;;;27.64;47.73;100332.30;1813671;79;21158;-79
2022/08/18 04:26:42;;;;;;;3.33;2.98;;;;;;;27.64;47.75;100335.91;1813963;78;21498;-80
2022/08/18 04:29:09;;;;;;;3.77;3.47;;;;;;;27.64;47.75;100333.70;1792236;79;21534;-79
2022/08/18 04:31:36;;;;;;;3.42;3.00;;;;;;;27.65;47.74;100335.32;1813694;78;20957;-79
2022/08/18 04:34:02;;;;;;;3.77;3.22;;;;;;;27.64;47.71;100333.11;1791331;79;21051;-79
2022/08/18 04:36:30;;;;;;;3.55;3.22;;;;;;;27.64;47.73;100337.30;1814147;79;20969;-80
2022/08/18 04:38:57;;;;;;;4.15;3.45;;;;;;;27.64;47.73;100333.70;1813669;79;21343;-79
2022/08/18 04:41:30;;;;;;;3.87;3.33;;;;;;;27.65;47.74;100337.53;1813801;78;21059;-80
2022/08/18 04:43:57;;;;;;;3.95;3.40;;;;;;;27.65;47.75;100339.52;1813916;78;21040;-79
2022/08/18 04:46:25;;;;;;;3.95;3.55;;;;;;;27.65;47.73;100333.34;1813875;78;21499;-79
2022/08/18 04:48:57;;;;;;;4.33;3.70;;;;;;;27.66;47.72;100334.14;1813980;78;21760;-80
2022/08/18 04:51:20;;;;;;;4.22;3.67;;;;;;;27.65;47.74;100341.72;1813217;78;21007;-80
2022/08/18 04:53:47;;;;;;;4.20;3.40;;;;;;;27.65;47.76;100345.11;1813704;79;21072;-80
2022/08/18 04:56:29;;;;;;;3.83;3.45;;;;;;;27.64;47.75;100344.30;1813776;78;21059;-79
2022/08/18 04:58:58;;;;;;;4.22;3.55;;;;;;;27.66;47.72;100350.91;1795885;79;21083;-79
2022/08/18 05:01:27;;;;;;;4.15;3.60;;;;;;;27.65;47.72;100350.69;1770556;79;21132;-79
2022/08/18 05:03:53;;;;;;;4.87;4.05;;;;;;;27.65;47.80;100347.90;1733150;81;21051;-79
2022/08/18 05:06:24;;;;;;;6.30;3.95;;;;;;;27.63;47.88;100348.27;1706053;82;21297;-79
2022/08/18 05:08:52;;;;;;;5.55;3.87;;;;;;;27.60;47.94;100353.22;1703502;83;21053;-79
2022/08/18 05:11:19;;;;;;;5.37;4.00;;;;;;;27.59;48.02;100355.79;1702264;83;21096;-79
2022/08/18 05:13:45;;;;;;;5.62;4.17;;;;;;;27.56;48.07;100350.96;1706843;81;21213;-79
2022/08/18 05:16:12;;;;;;;6.90;4.60;;;;;;;27.54;48.18;100356.11;1734762;81;21047;-79
2022/08/18 05:18:39;;;;;;;5.85;4.53;;;;;;;27.50;48.28;100350.24;1742579;81;20996;-79
2022/08/18 05:21:12;;;;;;;5.03;3.95;;;;;;;27.50;48.39;100351.05;1742317;81;21029;-80
2022/08/18 05:23:42;;;;;;;4.75;4.00;;;;;;;27.49;48.47;100350.05;1742571;81;21087;-79
2022/08/18 05:26:25;;;;;;;5.60;4.40;;;;;;;27.48;48.50;100349.23;1742489;81;21363;-79
2022/08/18 05:28:51;;;;;;;7.37;4.70;;;;;;;27.46;48.55;100339.58;1742944;81;20937;-79
2022/08/18 05:31:21;;;;;;;7.58;5.15;;;;;;;27.45;48.61;100337.98;1742239;81;21507;-79
2022/08/18 05:33:47;;;;;;;6.53;5.00;;;;;;;27.43;48.68;100335.55;1742800;81;21639;-79
2022/08/18 05:36:52;;;;;;;7.58;4.97;;;;;;;27.42;48.72;100338.72;1740429;81;21056;-79
2022/08/18 05:39:23;;;;;;;7.22;4.95;;;;;;;27.40;48.77;100335.50;1737401;82;21177;-80
2022/08/18 05:42:04;;;;;;;5.95;4.90;;;;;;;27.37;48.81;100336.27;1737903;82;21050;-79
2022/08/18 05:44:35;;;;;;;6.17;4.72;;;;;;;27.36;48.86;100337.44;1737678;82;21492;-80
2022/08/18 05:47:08;;;;;;;6.37;4.95;;;;;;;27.35;48.89;100356.77;1737879;82;21152;-79
2022/08/18 05:49:34;;;;;;;8.30;5.62;;;;;;;27.33;48.96;100359.14;1737138;82;21049;-79
2022/08/18 05:52:05;;;;;;;9.43;5.62;;;;;;;27.32;49.02;100364.51;1737797;82;21270;-79
2022/08/18 05:57:23;;;;;;;5.65;5.03;;;;;;;27.26;49.26;100359.81;1737729;82;21022;-79
2022/08/18 05:59:51;;;;;;;8.63;5.58;;;;;;;27.25;49.26;100365.98;1737831;82;21488;-80
2022/08/18 06:02:31;;;;;;;7.97;5.40;;;;;;;27.23;49.31;100364.17;1693249;82;21132;-79
2022/08/18 06:05:02;;;;;;;7.40;5.37;;;;;;;27.23;49.33;100361.38;1736827;82;21227;-81
2022/08/18 06:07:52;;;;;;;6.00;5.37;;;;;;;27.23;49.35;100367.55;1713509;81;21055;-79
2022/08/18 06:10:18;;;;;;;8.20;5.83;;;;;;;27.24;49.37;100368.56;1751049;81;21052;-79
2022/08/18 06:12:50;;;;;;;10.53;6.22;;;;;;;27.22;49.46;100365.34;1734263;82;21418;-79
2022/08/18 06:15:55;;;;;;;8.08;5.90;;;;;;;27.20;49.58;100363.50;1733241;81;21587;-81
2022/08/18 06:18:47;;;;;;;7.95;5.45;;;;;;;27.16;49.68;100364.03;1739274;81;22149;-79
2022/08/18 06:21:34;;;;;;;7.75;5.45;;;;;;;27.15;49.71;100365.82;1676641;84;21053;-80
2022/08/18 06:24:38;;;;;;;8.23;5.92;;;;;;;27.15;49.74;100372.22;1677160;83;21364;-79
2022/08/18 06:27:31;;;;;;;7.65;6.20;;;;;;;27.14;49.73;100369.79;1731469;82;21081;-79
2022/08/18 06:30:18;;;;;;;7.78;5.85;;;;;;;27.14;49.80;100367.00;1716138;81;21077;-80
2022/08/18 06:33:18;;;;;;;7.78;6.05;;;;;;;27.11;49.87;100369.95;1736793;81;21151;-79
2022/08/18 06:35:49;;;;;;;9.25;6.20;;;;;;;27.09;49.95;100369.51;1722699;82;21057;-80
2022/08/18 06:38:38;;;;;;;10.70;6.00;;;;;;;27.09;49.98;100372.30;1706566;82;21049;-80
2022/08/18 06:41:24;;;;;;;10.13;6.00;;;;;;;27.10;50.00;100373.11;1674133;84;21072;-80
2022/08/18 06:44:07;;;;;;;7.80;5.95;;;;;;;27.08;50.12;100377.66;1717283;81;21124;-81
2022/08/18 06:47:03;;;;;;;6.80;6.10;;;;;;;27.07;50.14;100373.28;1703118;81;22033;-82
2022/08/18 06:49:47;;;;;;;7.37;5.75;;;;;;;27.10;50.15;100371.12;1703031;81;21068;-87
2022/08/18 06:52:34;;;;;;;8.05;6.37;;;;;;;27.11;50.17;100379.73;1730381;82;21307;-80
2022/08/18 06:55:13;;;;;;;6.78;6.10;;;;;;;27.13;50.22;100379.34;1726884;80;21161;-80
2022/08/18 06:57:56;;;;;;;7.92;5.87;;;;;;;27.14;50.21;100374.79;1719959;80;22273;-79
2022/08/18 07:00:26;;;;;;;9.48;6.15;;;;;;;27.14;50.27;100380.95;1734606;80;21142;-80
2022/08/18 07:03:06;;;;;;;9.80;6.08;;;;;;;27.17;50.31;100384.39;1727109;81;21040;-80
2022/08/18 07:05:34;;;;;;;8.10;6.42;;;;;;;27.19;50.36;100382.05;1727349;81;21027;-80
2022/08/18 07:08:15;;;;;;;6.70;6.05;;;;;;;27.21;50.37;100374.09;1792196;79;21009;-80
2022/08/18 07:10:44;;;;;;;7.08;6.25;;;;;;;27.23;50.40;100385.71;1788544;78;21621;-79
2022/08/18 07:13:22;;;;;;;9.00;6.33;;;;;;;27.24;50.38;100383.14;1769657;80;21189;-79
2022/08/18 07:15:49;;;;;;;8.88;6.05;;;;;;;27.25;50.41;100386.94;1770333;80;21103;-80
2022/08/18 07:18:21;;;;;;;8.65;6.00;;;;;;;27.26;50.36;100380.77;1789977;78;21531;-79
2022/08/18 07:20:52;;;;;;;9.48;6.62;;;;;;;27.26;50.34;100377.38;1777663;78;21072;-79
2022/08/18 07:23:38;;;;;;;9.05;6.70;;;;;;;27.28;50.33;100373.61;1807648;77;21151;-80
2022/08/18 07:26:14;;;;;;;7.05;6.22;;;;;;;27.30;50.27;100376.63;1803298;79;21585;-81
2022/08/18 07:28:49;;;;;;;9.40;6.67;;;;;;;27.30;50.27;100372.44;1812782;78;21017;-80
2022/08/18 07:31:38;;;;;;;8.70;6.67;;;;;;;27.31;50.23;100367.89;1772768;78;21052;-80
2022/08/18 07:34:13;;;;;;;8.20;6.95;;;;;;;27.32;50.19;100368.11;1770610;80;21061;-79
2022/08/18 07:36:48;;;;;;;7.62;5.90;;;;;;;27.33;50.15;100371.09;1770891;81;21721;-79
2022/08/18 07:39:27;;;;;;;9.08;6.55;;;;;;;27.35;50.12;100367.94;1760570;80;21194;-79
2022/08/18 07:42:17;;;;;;;9.80;6.42;;;;;;;27.38;50.09;100371.38;1776560;78;22016;-80
2022/08/18 07:44:58;;;;;;;7.37;6.12;;;;;;;27.39;50.09;100364.61;1721101;80;22410;-79
2022/08/18 07:47:44;;;;;;;7.22;6.30;;;;;;;27.40;50.08;100367.63;1784838;77;21476;-79
2022/08/18 07:50:11;;;;;;;8.13;6.80;;;;;;;27.41;50.05;100370.65;1784344;78;21523;-80
2022/08/18 07:52:42;;;;;;;7.75;6.37;;;;;;;27.42;50.07;100373.05;1801403;77;21110;-80
2022/08/18 07:55:34;;;;;;;9.18;6.05;;;;;;;27.43;50.10;100369.67;1787534;78;21539;-79
2022/08/18 07:58:27;;;;;;;7.72;6.80;;;;;;;27.44;50.10;100362.91;1814238;78;21032;-80
2022/08/18 08:01:07;;;;;;;7.35;5.70;;;;;;;27.46;50.04;100363.32;1794310;79;21110;-81
2022/08/18 08:03:57;;;;;;;8.43;5.83;;;;;;;27.47;50.02;100367.73;1801869;78;21571;-80
2022/08/18 08:06:29;;;;;;;8.88;6.85;;;;;;;27.48;50.00;100367.99;1774785;78;21902;-80
2022/08/18 08:09:40;;;;;;;10.03;6.80;;;;;;;27.50;50.00;100370.61;1782749;78;21061;-80
2022/08/18 08:12:24;;;;;;;8.58;6.97;;;;;;;27.51;50.01;100375.03;1780957;78;21745;-81
2022/08/18 08:15:29;;;;;;;8.05;6.72;;;;;;;27.52;50.07;100370.25;1778561;78;21534;-80
2022/08/18 08:18:13;;;;;;;7.17;6.40;;;;;;;27.52;50.07;100370.25;1788124;79;21064;-80
2022/08/18 08:20:49;;;;;;;8.98;6.78;;;;;;;27.54;50.00;100368.68;1789157;78;21463;-80
2022/08/18 08:23:39;;;;;;;9.13;6.30;;;;;;;27.55;50.00;100370.30;1781943;79;21586;-81
2022/08/18 08:26:26;;;;;;;8.90;6.83;;;;;;;27.58;49.96;100369.54;1790962;78;21307;-81
2022/08/18 08:29:23;;;;;;;8.05;6.70;;;;;;;27.59;49.88;100364.17;1776400;78;21033;-80
2022/08/18 08:32:03;;;;;;;7.67;6.67;;;;;;;27.60;49.90;100377.56;1783155;78;21017;-79
2022/08/18 08:35:02;;;;;;;8.70;6.33;;;;;;;27.61;49.92;100369.40;1794998;79;21017;-80
2022/08/18 08:37:43;;;;;;;11.33;7.05;;;;;;;27.62;49.93;100374.62;1738602;79;21550;-80
2022/08/18 08:40:39;;;;;;;9.73;6.70;;;;;;;27.65;49.91;100368.86;1792372;79;21279;-80
2022/08/18 08:43:12;;;;;;;7.95;6.85;;;;;;;27.66;49.92;100371.29;1754673;78;21048;-80
2022/08/18 08:45:50;;;;;;;9.40;6.60;;;;;;;27.68;49.88;100369.50;1755128;79;22041;-80
2022/08/18 08:48:20;;;;;;;8.60;6.33;;;;;;;27.70;49.75;100365.75;1774598;79;21963;-80
2022/08/18 08:50:58;;;;;;;5.72;4.97;;;;;;;27.71;49.73;100363.14;1788465;79;21020;-79
2022/08/18 08:53:44;;;;;;;6.70;5.95;;;;;;;27.73;49.66;100360.80;1772440;78;21585;-80
2022/08/18 08:56:19;;;;;;;8.70;6.50;;;;;;;27.75;49.53;100357.05;1787882;79;21861;-81
2022/08/18 08:58:52;;;;;;;8.05;6.95;;;;;;;27.76;49.46;100352.23;1804472;78;21010;-79
2022/08/18 09:01:56;;;;;;;8.75;6.37;;;;;;;27.77;49.45;100357.45;1785688;78;21622;-80
2022/08/18 09:04:34;;;;;;;8.60;6.42;;;;;;;27.77;49.38;100360.84;1776321;79;21049;-79
2022/08/18 09:07:29;;;;;;;9.10;6.55;;;;;;;27.77;49.29;100364.45;1767044;79;21071;-79
2022/08/18 09:10:18;;;;;;;10.53;6.53;;;;;;;27.78;49.22;100358.27;1768665;80;21057;-80
2022/08/18 09:13:22;;;;;;;7.30;6.35;;;;;;;27.77;49.21;100357.45;1761066;79;21099;-80
2022/08/18 09:16:06;;;;;;;8.75;6.10;;;;;;;27.79;49.24;100354.30;1757282;80;21569;-80
2022/08/18 09:19:10;;;;;;;6.60;6.00;;;;;;;27.79;49.22;100344.52;1774008;79;21076;-80
2022/08/18 09:21:48;;;;;;;7.65;6.42;;;;;;;27.79;49.24;100347.30;1773610;80;21149;-78
2022/08/18 09:24:28;;;;;;;8.18;6.95;;;;;;;27.81;49.18;100349.11;1771649;79;21051;-79
2022/08/18 09:27:14;;;;;;;8.55;6.15;;;;;;;27.84;49.21;100350.56;1803398;79;21013;-82
2022/08/18 09:29:56;;;;;;;11.63;7.78;;;;;;;27.86;49.22;100349.60;1782825;79;21130;-80
2022/08/18 09:32:28;;;;;;;7.92;6.58;;;;;;;27.87;49.15;100354.02;1767483;79;21099;-80
2022/08/18 09:35:15;;;;;;;11.05;6.83;;;;;;;27.88;49.17;100352.03;1768722;79;21581;-79
2022/08/18 09:41:44;;;;;;;8.55;6.00;;;;;;;27.91;49.25;100351.27;1773800;79;21090;-79
2022/08/18 09:44:09;;;;;;;6.70;5.78;;;;;;;27.90;49.28;100351.86;1753987;80;22035;-80
2022/08/18 09:46:51;;;;;;;8.15;7.03;;;;;;;27.93;49.42;100355.87;1771423;80;21001;-80
2022/08/18 09:49:30;;;;;;;7.28;6.08;;;;;;;27.93;49.43;100353.08;1738364;80;21036;-79
2022/08/18 09:52:19;;;;;;;9.05;6.33;;;;;;;27.92;49.42;100356.46;1772269;79;21546;-80
2022/08/18 09:55:03;;;;;;;8.30;6.45;;;;;;;27.92;49.50;100352.89;1696426;82;22256;-79
